createdAt,value
2022-12-16T00:00:30.258Z,100117.53
2022-12-16T00:03:02.429Z,100119.25
2022-12-16T00:05:42.670Z,100104.94
2022-12-16T00:08:16.266Z,100085.72
2022-12-16T00:10:54.928Z,100110.84
2022-12-16T00:13:28.742Z,100115.09
2022-12-16T00:16:04.229Z,100078.09
2022-12-16T00:18:36.826Z,100100.81
2022-12-16T00:21:09.696Z,100109.25
2022-12-16T00:23:44.594Z,100100.03
2022-12-16T00:26:16.580Z,100090.69
2022-12-16T00:28:48.511Z,100057.16
2022-12-16T00:31:20.421Z,100091.63
2022-12-16T00:33:56.594Z,100089.03
2022-12-16T00:36:28.539Z,100055.50
2022-12-16T00:39:00.662Z,100051.31
2022-12-16T00:41:32.697Z,100092.38
2022-12-16T00:44:05.252Z,100094.81
2022-12-16T00:46:37.217Z,100081.59
2022-12-16T00:49:09.612Z,100100.78
2022-12-16T00:51:41.599Z,100059.69
2022-12-16T00:54:16.366Z,100095.72
2022-12-16T00:56:48.350Z,100078.22
2022-12-16T00:59:20.318Z,100088.25
2022-12-16T01:01:52.477Z,100043.75
2022-12-16T01:04:26.975Z,100079.88
2022-12-16T01:06:58.905Z,100076.38
2022-12-16T01:09:30.924Z,100051.25
2022-12-16T01:12:03.105Z,100094.88
2022-12-16T01:14:35.120Z,100090.66
2022-12-16T01:17:07.141Z,100089.84
2022-12-16T01:19:39.175Z,100023.59
2022-12-16T01:22:12.352Z,100085.50
2022-12-16T01:24:45.072Z,100064.63
2022-12-16T01:27:17.808Z,100081.28
2022-12-16T01:29:50.598Z,100056.31
2022-12-16T01:32:23.001Z,100083.09
2022-12-16T01:34:55.788Z,100065.47
2022-12-16T01:37:27.938Z,100021.84
2022-12-16T01:39:59.934Z,100047.88
2022-12-16T01:42:33.924Z,100051.22
2022-12-16T01:45:33.528Z,100059.63
2022-12-16T01:48:31.099Z,100051.25
2022-12-16T01:51:12.544Z,100047.06
2022-12-16T01:53:46.578Z,100051.06
2022-12-16T01:56:22.300Z,100019.28
2022-12-16T01:58:55.232Z,100044.31
2022-12-16T02:01:32.422Z,100045.97
2022-12-16T02:04:04.970Z,100003.09
2022-12-16T02:06:37.287Z,100039.22
2022-12-16T02:09:12.042Z,100062.81
2022-12-16T02:12:04.944Z,100073.63
2022-12-16T02:14:54.430Z,100052.81
2022-12-16T02:17:46.661Z,100060.28
2022-12-16T02:20:45.124Z,100042.59
2022-12-16T02:23:36.181Z,100065.47
2022-12-16T02:26:21.178Z,100056.00
2022-12-16T02:29:02.201Z,100050.19
2022-12-16T02:31:43.941Z,100014.00
2022-12-16T02:34:27.605Z,100033.28
2022-12-16T02:37:20.739Z,100026.56
2022-12-16T02:40:01.408Z,100011.38
2022-12-16T02:42:42.395Z,99993.13
2022-12-16T02:45:21.828Z,100009.69
2022-12-16T02:47:54.003Z,99999.53
2022-12-16T02:50:38.453Z,99999.53
2022-12-16T02:53:10.906Z,99977.84
2022-12-16T02:56:13.552Z,100002.94
2022-12-16T02:59:06.980Z,99993.59
2022-12-16T03:02:00.462Z,99991.19
2022-12-16T03:04:40.667Z,99945.69
2022-12-16T03:07:16.058Z,99976.88
2022-12-16T03:09:49.719Z,99962.72
2022-12-16T03:12:23.380Z,99971.91
2022-12-16T03:14:55.855Z,99934.13
2022-12-16T03:17:29.477Z,99991.97
2022-12-16T03:20:27.072Z,99989.47
2022-12-16T03:23:03.342Z,99984.38
2022-12-16T03:25:39.361Z,99989.31
2022-12-16T03:28:23.604Z,99983.44
2022-12-16T03:31:29.792Z,99979.28
2022-12-16T03:34:12.612Z,99971.78
2022-12-16T03:36:49.873Z,99976.72
2022-12-16T03:39:24.204Z,99952.28
2022-12-16T03:41:57.624Z,99966.44
2022-12-16T03:44:29.917Z,99913.75
2022-12-16T03:47:02.113Z,99954.66
2022-12-16T03:49:34.197Z,99913.53
2022-12-16T03:52:06.798Z,99930.34
2022-12-16T03:54:38.813Z,99929.41
2022-12-16T03:57:15.473Z,99911.06
2022-12-16T03:59:47.855Z,99942.88
2022-12-16T04:02:19.797Z,99939.72
2022-12-16T04:04:51.857Z,99854.06
2022-12-16T04:07:24.957Z,99881.59
2022-12-16T04:09:57.120Z,99915.94
2022-12-16T04:12:47.384Z,99902.44
2022-12-16T04:15:38.041Z,99883.91
2022-12-16T04:18:35.301Z,99888.28
2022-12-16T04:21:26.173Z,99900.00
2022-12-16T04:24:16.810Z,99901.84
2022-12-16T04:27:11.927Z,99911.72
2022-12-16T04:30:05.917Z,99895.75
2022-12-16T04:32:56.782Z,99909.16
2022-12-16T04:35:47.447Z,99883.84
2022-12-16T04:38:37.610Z,99902.28
2022-12-16T04:41:29.767Z,99874.66
2022-12-16T04:44:20.447Z,99909.00
2022-12-16T04:47:10.853Z,99920.09
2022-12-16T04:50:01.415Z,99899.72
2022-12-16T04:52:51.500Z,99906.66
2022-12-16T04:55:42.305Z,99898.09
2022-12-16T04:58:32.985Z,99886.47
2022-12-16T05:01:24.068Z,99877.16
2022-12-16T05:04:14.853Z,99815.97
2022-12-16T05:07:05.772Z,99888.84
2022-12-16T05:09:56.191Z,99886.22
2022-12-16T05:12:46.978Z,99890.50
2022-12-16T05:15:37.760Z,99890.34
2022-12-16T05:18:30.541Z,99895.38
2022-12-16T05:21:22.179Z,99896.25
2022-12-16T05:24:12.730Z,99891.94
2022-12-16T05:27:03.428Z,99887.78
2022-12-16T05:29:54.194Z,99867.66
2022-12-16T05:32:44.523Z,99890.41
2022-12-16T05:35:35.257Z,99880.25
2022-12-16T05:38:26.196Z,99892.69
2022-12-16T05:41:16.560Z,99887.50
2022-12-16T05:44:07.161Z,99872.47
2022-12-16T05:46:58.109Z,99888.44
2022-12-16T05:49:48.965Z,99880.94
2022-12-16T05:52:42.847Z,99879.00
2022-12-16T05:55:34.286Z,99884.78
2022-12-16T05:58:24.910Z,99875.78
2022-12-16T06:01:15.680Z,99884.09
2022-12-16T06:04:06.267Z,99892.31
2022-12-16T06:06:56.521Z,99891.66
2022-12-16T06:09:50.563Z,99885.59
2022-12-16T06:12:45.605Z,99878.00
2022-12-16T06:15:36.341Z,99889.84
2022-12-16T06:18:26.993Z,99887.28
2022-12-16T06:21:17.086Z,99888.81
2022-12-16T06:24:07.642Z,99883.19
2022-12-16T06:26:57.896Z,99884.56
2022-12-16T06:29:48.423Z,99887.91
2022-12-16T06:32:38.941Z,99876.94
2022-12-16T06:35:29.610Z,99867.66
2022-12-16T06:38:19.886Z,99887.81
2022-12-16T06:41:10.616Z,99868.53
2022-12-16T06:44:00.777Z,99881.00
2022-12-16T06:46:51.462Z,99880.44
2022-12-16T06:49:41.672Z,99885.25
2022-12-16T06:52:32.389Z,99859.97
2022-12-16T06:55:26.315Z,99839.81
2022-12-16T06:58:20.063Z,99864.22
2022-12-16T07:01:10.851Z,99872.69
2022-12-16T07:04:01.479Z,99871.06
2022-12-16T07:06:51.698Z,99901.97
2022-12-16T07:09:42.883Z,99878.41
2022-12-16T07:12:33.516Z,99897.66
2022-12-16T07:15:24.074Z,99889.22
2022-12-16T07:18:14.629Z,99896.03
2022-12-16T07:21:04.800Z,99900.09
2022-12-16T07:23:55.388Z,99893.66
2022-12-16T07:26:46.454Z,99885.16
2022-12-16T07:29:36.978Z,99916.22
2022-12-16T07:32:27.681Z,99915.38
2022-12-16T07:35:18.397Z,99924.59
2022-12-16T07:38:08.513Z,99925.38
2022-12-16T07:40:59.286Z,99922.97
2022-12-16T07:43:50.029Z,99909.25
2022-12-16T07:46:40.832Z,99896.72
2022-12-16T07:49:31.458Z,99877.28
2022-12-16T07:52:22.158Z,99887.38
2022-12-16T07:55:12.806Z,99888.13
2022-12-16T07:58:09.072Z,99841.19
2022-12-16T08:01:10.812Z,99866.59
2022-12-16T08:04:01.472Z,99862.28
2022-12-16T08:06:59.159Z,99857.00
2022-12-16T08:09:50.000Z,99845.19
2022-12-16T08:12:40.801Z,99845.38
2022-12-16T08:15:31.480Z,99839.47
2022-12-16T08:18:22.216Z,99857.75
2022-12-16T08:21:12.677Z,99853.63
2022-12-16T08:24:03.381Z,99855.97
2022-12-16T08:26:54.043Z,99837.56
2022-12-16T08:29:45.949Z,99846.13
2022-12-16T08:32:36.750Z,99860.25
2022-12-16T08:35:26.891Z,99875.22
2022-12-16T08:38:17.689Z,99868.97
2022-12-16T08:41:09.312Z,99853.09
2022-12-16T08:44:00.091Z,99855.63
2022-12-16T08:46:50.814Z,99857.41
2022-12-16T08:49:41.665Z,99860.66
2022-12-16T08:52:32.385Z,99851.00
2022-12-16T08:55:27.826Z,99832.50
2022-12-16T08:58:20.085Z,99830.03
2022-12-16T09:01:10.875Z,99840.84
2022-12-16T09:04:01.610Z,99811.84
2022-12-16T09:06:52.441Z,99815.09
2022-12-16T09:09:42.479Z,99835.25
2022-12-16T09:12:33.113Z,99828.44
2022-12-16T09:15:23.231Z,99824.16
2022-12-16T09:18:14.305Z,99814.75
2022-12-16T09:21:05.245Z,99777.13
2022-12-16T09:23:55.808Z,99802.50
2022-12-16T09:26:47.620Z,99790.53
2022-12-16T09:29:43.468Z,99784.84
2022-12-16T09:32:35.469Z,99773.75
2022-12-16T09:35:26.139Z,99780.84
2022-12-16T09:38:16.273Z,99777.66
2022-12-16T09:41:06.964Z,99772.88
2022-12-16T09:43:57.121Z,99776.00
2022-12-16T09:47:12.553Z,99760.59
2022-12-16T09:50:02.732Z,99774.44
2022-12-16T09:53:00.792Z,99770.75
2022-12-16T09:55:59.722Z,99772.03
2022-12-16T09:59:07.586Z,99765.22
2022-12-16T10:01:59.065Z,99772.88
2022-12-16T10:04:49.864Z,99766.91
2022-12-16T10:07:40.590Z,99767.63
2022-12-16T10:11:12.515Z,99756.94
2022-12-16T10:14:17.779Z,99721.75
2022-12-16T10:17:09.864Z,99753.19
2022-12-16T10:20:18.101Z,99744.09
2022-12-16T10:23:18.991Z,99726.34
2022-12-16T10:26:23.849Z,99726.41
2022-12-16T10:29:41.814Z,99709.75
2022-12-16T10:32:57.183Z,99738.97
2022-12-16T10:35:56.456Z,99713.59
2022-12-16T10:39:02.510Z,99725.72
2022-12-16T10:41:59.298Z,99724.78
2022-12-16T10:45:11.215Z,99727.28
2022-12-16T10:48:01.912Z,99717.22
2022-12-16T10:50:52.068Z,99724.38
2022-12-16T10:53:47.240Z,99712.34
2022-12-16T10:57:11.975Z,99723.59
2022-12-16T11:00:02.531Z,99716.78
2022-12-16T11:02:53.323Z,99708.78
2022-12-16T11:05:51.393Z,99718.81
2022-12-16T11:08:47.289Z,99683.28
2022-12-16T11:11:48.573Z,99705.91
2022-12-16T11:14:50.329Z,99724.09
2022-12-16T11:17:52.211Z,99704.69
2022-12-16T11:20:45.085Z,99702.19
2022-12-16T11:23:41.914Z,99668.75
2022-12-16T11:26:37.219Z,99693.59
2022-12-16T11:29:35.341Z,99688.63
2022-12-16T11:32:45.680Z,99666.41
2022-12-16T11:35:40.330Z,99677.59
2022-12-16T11:38:44.764Z,99677.50
2022-12-16T11:41:47.026Z,99657.13
2022-12-16T11:44:56.232Z,99675.78
2022-12-16T11:48:01.718Z,99669.56
2022-12-16T11:50:56.910Z,99664.69
2022-12-16T11:54:07.249Z,99654.84
2022-12-16T11:57:01.602Z,99665.91
2022-12-16T11:59:57.509Z,99679.03
2022-12-16T12:03:21.034Z,99675.88
2022-12-16T12:06:34.930Z,99655.34
2022-12-16T12:09:40.999Z,99677.25
2022-12-16T12:13:17.105Z,99673.09
2022-12-16T12:16:43.285Z,99670.44
2022-12-16T12:19:57.524Z,99662.66
2022-12-16T12:22:58.705Z,99674.34
2022-12-16T12:26:04.187Z,99677.53
2022-12-16T12:29:14.624Z,99677.91
2022-12-16T12:32:31.742Z,99675.53
2022-12-16T12:35:51.837Z,99666.16
2022-12-16T12:38:59.018Z,99651.88
2022-12-16T12:42:18.813Z,99652.69
2022-12-16T12:45:57.410Z,99651.66
2022-12-16T12:49:00.817Z,99647.41
2022-12-16T12:52:28.121Z,99655.31
2022-12-16T12:55:56.410Z,99672.09
2022-12-16T12:58:49.255Z,99681.00
2022-12-16T13:01:44.331Z,99658.34
2022-12-16T13:04:38.760Z,99665.09
2022-12-16T13:07:29.520Z,99651.34
2022-12-16T13:10:38.607Z,99669.41
2022-12-16T13:13:49.273Z,99670.59
2022-12-16T13:17:04.541Z,99674.25
2022-12-16T13:20:02.987Z,99676.44
2022-12-16T13:22:55.235Z,99659.06
2022-12-16T13:26:12.475Z,99668.88
2022-12-16T13:29:28.317Z,99683.41
2022-12-16T13:32:23.476Z,99697.53
2022-12-16T13:35:24.064Z,99659.16
2022-12-16T13:38:38.347Z,99686.06
2022-12-16T13:41:48.803Z,99692.75
2022-12-16T13:45:01.072Z,99700.44
2022-12-16T13:48:00.501Z,99697.59
2022-12-16T13:51:05.666Z,99680.28
2022-12-16T13:54:01.847Z,99695.59
2022-12-16T13:57:07.752Z,99691.09
2022-12-16T14:00:00.361Z,99693.72
2022-12-16T14:03:01.408Z,99710.50
2022-12-16T14:05:56.528Z,99690.72
2022-12-16T14:08:53.632Z,99703.44
2022-12-16T14:12:16.716Z,99711.66
2022-12-16T14:15:25.937Z,99709.09
2022-12-16T14:18:44.525Z,99739.50
2022-12-16T14:21:57.436Z,99750.47
2022-12-16T14:24:49.059Z,99757.22
2022-12-16T14:27:41.343Z,99744.03
2022-12-16T14:30:44.773Z,99770.84
2022-12-16T14:33:43.108Z,99752.72
2022-12-16T14:36:44.900Z,99771.66
2022-12-16T14:39:49.903Z,99780.28
2022-12-16T14:42:48.336Z,99770.00
2022-12-16T14:45:47.869Z,99776.22
2022-12-16T14:48:50.073Z,99758.50
2022-12-16T14:51:48.829Z,99771.38
2022-12-16T14:54:55.304Z,99780.72
2022-12-16T14:57:48.445Z,99790.88
2022-12-16T15:00:42.774Z,99794.31
2022-12-16T15:03:49.564Z,99805.03
2022-12-16T15:06:48.826Z,99780.75
2022-12-16T15:09:49.026Z,99773.94
2022-12-16T15:12:44.326Z,99774.81
2022-12-16T15:16:00.428Z,99771.53
2022-12-16T15:19:01.225Z,99758.19
2022-12-16T15:21:54.707Z,99789.78
2022-12-16T15:24:49.947Z,99780.66
2022-12-16T15:27:40.212Z,99805.16
2022-12-16T15:31:01.678Z,99806.13
2022-12-16T15:33:55.399Z,99805.56
2022-12-16T15:36:50.195Z,99807.03
2022-12-16T15:39:48.037Z,99803.72
2022-12-16T15:42:41.395Z,99802.00
2022-12-16T15:45:45.006Z,99810.38
2022-12-16T15:48:53.047Z,99814.22
2022-12-16T15:51:50.347Z,99808.25
2022-12-16T15:54:42.754Z,99807.56
2022-12-16T15:57:47.561Z,99821.72
2022-12-16T16:00:42.985Z,99833.81
2022-12-16T16:03:44.421Z,99838.72
2022-12-16T16:06:43.270Z,99836.97
2022-12-16T16:09:44.496Z,99837.91
2022-12-16T16:12:37.264Z,99820.50
2022-12-16T16:15:30.804Z,99849.00
2022-12-16T16:18:25.091Z,99846.22
2022-12-16T16:21:16.158Z,99832.97
2022-12-16T16:24:06.736Z,99828.31
2022-12-16T16:26:57.582Z,99846.59
2022-12-16T16:29:48.499Z,99819.72
2022-12-16T16:32:55.847Z,99811.44
2022-12-16T16:35:46.928Z,99825.50
2022-12-16T16:38:37.501Z,99822.75
2022-12-16T16:41:33.887Z,99717.56
2022-12-16T16:44:24.725Z,99840.03
2022-12-16T16:47:16.491Z,99850.78
2022-12-16T16:50:07.507Z,99836.00
2022-12-16T16:52:58.144Z,99848.47
2022-12-16T16:55:48.739Z,99855.31
2022-12-16T16:58:44.511Z,99856.09
2022-12-16T17:01:51.214Z,99867.84
2022-12-16T17:04:42.251Z,99876.41
2022-12-16T17:07:33.045Z,99876.75
2022-12-16T17:10:23.276Z,99876.72
2022-12-16T17:13:13.686Z,99859.00
2022-12-16T17:16:06.824Z,99872.44
2022-12-16T17:18:57.630Z,99865.81
2022-12-16T17:21:47.743Z,99886.81
2022-12-16T17:24:44.901Z,99896.16
2022-12-16T17:27:40.318Z,99906.38
2022-12-16T17:30:46.497Z,99897.00
2022-12-16T17:33:38.441Z,99906.25
2022-12-16T17:36:34.053Z,99892.94
2022-12-16T17:39:25.243Z,99909.06
2022-12-16T17:42:16.395Z,99897.38
2022-12-16T17:45:07.098Z,99907.50
2022-12-16T17:47:57.280Z,99920.69
2022-12-16T17:50:48.193Z,99902.34
2022-12-16T17:53:38.819Z,99909.94
2022-12-16T17:56:29.509Z,99917.81
2022-12-16T17:59:19.673Z,99936.13
2022-12-16T18:02:27.331Z,99916.22
2022-12-16T18:05:17.767Z,99942.19
2022-12-16T18:08:08.468Z,99943.13
2022-12-16T18:10:58.974Z,99953.19
2022-12-16T18:13:49.764Z,99918.06
2022-12-16T18:16:40.479Z,99936.72
2022-12-16T18:19:33.904Z,99942.38
2022-12-16T18:22:24.548Z,99969.91
2022-12-16T18:25:15.149Z,99986.16
2022-12-16T18:28:05.341Z,100000.56
2022-12-16T18:30:56.286Z,99993.97
2022-12-16T18:33:47.460Z,99986.44
2022-12-16T18:36:38.312Z,100009.03
2022-12-16T18:39:31.025Z,99976.25
2022-12-16T18:42:21.784Z,100008.16
2022-12-16T18:45:12.605Z,99994.91
2022-12-16T18:48:02.772Z,100017.38
2022-12-16T18:50:53.405Z,99984.75
2022-12-16T18:53:47.057Z,100005.66
2022-12-16T18:56:37.787Z,100010.69
2022-12-16T18:59:27.946Z,100009.03
2022-12-16T19:02:18.588Z,100002.50
2022-12-16T19:05:09.123Z,100004.63
2022-12-16T19:07:59.920Z,99992.06
2022-12-16T19:10:50.690Z,100007.22
2022-12-16T19:13:42.398Z,99995.63
2022-12-16T19:16:33.287Z,99990.59
2022-12-16T19:19:24.068Z,100008.13
2022-12-16T19:22:14.452Z,100029.25
2022-12-16T19:25:05.429Z,100029.28
2022-12-16T19:27:56.436Z,100038.69
2022-12-16T19:30:47.454Z,100026.16
2022-12-16T19:33:38.331Z,100049.50
2022-12-16T19:36:28.648Z,100046.09
2022-12-16T19:39:19.365Z,100024.28
2022-12-16T19:42:10.109Z,100043.09
2022-12-16T19:45:00.199Z,100067.28
2022-12-16T19:47:51.616Z,100043.13
2022-12-16T19:50:42.380Z,100066.69
2022-12-16T19:53:32.662Z,100075.00
2022-12-16T19:56:23.462Z,100080.28
2022-12-16T19:59:13.838Z,100088.44
2022-12-16T20:02:11.403Z,100069.38
2022-12-16T20:05:01.960Z,100095.31
2022-12-16T20:07:52.696Z,100081.06
2022-12-16T20:10:46.688Z,100092.75
2022-12-16T20:13:37.363Z,100097.16
2022-12-16T20:16:30.643Z,100088.75
2022-12-16T20:19:21.302Z,100085.56
2022-12-16T20:25:22.533Z,100096.44
2022-12-16T20:28:13.357Z,100100.59
2022-12-16T20:31:04.087Z,100098.78
2022-12-16T20:33:58.260Z,100104.63
2022-12-16T20:36:51.797Z,100091.25
2022-12-16T20:39:44.665Z,100098.84
2022-12-16T20:42:39.041Z,100087.81
2022-12-16T20:45:34.540Z,100099.53
2022-12-16T20:48:25.423Z,100099.59
2022-12-16T20:54:29.520Z,100112.53
2022-12-16T20:57:20.276Z,100107.47
2022-12-16T21:00:10.378Z,100099.56
2022-12-16T21:03:01.031Z,100085.22
2022-12-16T21:05:57.303Z,100095.53
2022-12-16T21:08:47.937Z,100089.56
2022-12-16T21:11:38.601Z,100092.81
2022-12-16T21:14:28.918Z,100120.56
2022-12-16T21:17:19.698Z,100106.13
2022-12-16T21:20:10.552Z,100118.22
2022-12-16T21:23:01.257Z,100132.38
2022-12-16T21:25:51.472Z,100148.44
2022-12-16T21:28:42.088Z,100124.09
2022-12-16T21:31:33.027Z,100157.66
2022-12-16T21:34:23.482Z,100150.81
2022-12-16T21:37:15.156Z,100143.31
2022-12-16T21:40:05.769Z,100138.50
2022-12-16T21:42:56.644Z,100158.69
2022-12-16T21:45:47.405Z,100144.47
2022-12-16T21:48:37.552Z,100174.66
2022-12-16T21:51:28.308Z,100157.88
2022-12-16T21:54:21.590Z,100175.00
2022-12-16T21:57:12.420Z,100174.00
2022-12-16T22:00:03.133Z,100184.78
2022-12-16T22:02:53.857Z,100184.03
2022-12-16T22:05:44.096Z,100195.88
2022-12-16T22:08:34.839Z,100190.78
2022-12-16T22:11:36.344Z,100181.50
2022-12-16T22:14:27.144Z,100185.81
2022-12-16T22:17:17.392Z,100208.66
2022-12-16T22:20:08.110Z,100208.75
2022-12-16T22:22:59.878Z,100218.75
2022-12-16T22:25:50.905Z,100218.03
2022-12-16T22:28:43.938Z,100209.44
2022-12-16T22:31:34.262Z,100231.44
2022-12-16T22:34:25.046Z,100222.00
2022-12-16T22:37:15.931Z,100215.50
2022-12-16T22:40:06.591Z,100229.56
2022-12-16T22:42:57.115Z,100251.50
2022-12-16T22:45:47.536Z,100240.78
2022-12-16T22:48:38.765Z,100246.03
2022-12-16T22:51:33.929Z,100249.28
2022-12-16T22:54:24.717Z,100259.19
2022-12-16T22:57:15.384Z,100249.94
2022-12-16T23:00:05.456Z,100258.50
2022-12-16T23:02:56.134Z,100250.78
2022-12-16T23:05:47.265Z,100239.91
2022-12-16T23:08:37.932Z,100257.41
2022-12-16T23:11:35.667Z,100255.06
2022-12-16T23:14:25.959Z,100230.47
2022-12-16T23:17:16.801Z,100227.19
2022-12-16T23:20:07.497Z,100229.00
2022-12-16T23:22:57.678Z,100256.81
2022-12-16T23:25:48.007Z,100250.16
2022-12-16T23:28:38.686Z,100239.03
2022-12-16T23:31:29.309Z,100247.44
2022-12-16T23:32:30.071Z,100105.69
2022-12-16T23:34:19.888Z,100219.00
2022-12-16T23:37:10.488Z,100213.94
2022-12-16T23:40:01.372Z,100220.88
2022-12-16T23:42:52.052Z,100244.28
2022-12-16T23:45:42.514Z,100257.66
2022-12-16T23:48:33.116Z,100240.25
2022-12-16T23:51:23.493Z,100260.34
2022-12-16T23:54:14.185Z,100235.91
2022-12-16T23:57:04.465Z,100256.88
2022-12-16T23:59:55.142Z,100256.97
